createdAt,value
2018-05-15T00:01:15.635Z,47.40
2018-05-15T00:03:43.193Z,47.60
2018-05-15T00:06:11.494Z,48.10
2018-05-15T00:08:39.053Z,48.00
2018-05-15T00:11:06.606Z,48.30
2018-05-15T00:13:34.921Z,48.90
2018-05-15T00:16:02.440Z,48.80
2018-05-15T00:18:30.760Z,49.40
2018-05-15T00:20:58.293Z,49.30
2018-05-15T00:23:25.847Z,49.40
2018-05-15T00:25:54.140Z,49.70
2018-05-15T00:28:21.695Z,49.60
2018-05-15T00:30:49.233Z,49.90
2018-05-15T00:33:17.545Z,49.80
2018-05-15T00:35:45.074Z,49.70
2018-05-15T00:38:13.453Z,49.70
2018-05-15T00:40:41.785Z,50.00
2018-05-15T00:43:09.313Z,49.90
2018-05-15T00:45:36.842Z,50.20
2018-05-15T00:48:05.169Z,50.70
2018-05-15T00:50:32.688Z,50.60
2018-05-15T00:53:01.011Z,50.90
2018-05-15T00:55:40.273Z,50.90
2018-05-15T00:58:07.829Z,51.00
2018-05-15T01:00:35.356Z,50.80
2018-05-15T01:03:02.906Z,50.90
2018-05-15T01:05:30.429Z,50.90
2018-05-15T01:07:57.976Z,50.90
2018-05-15T01:10:25.509Z,50.90
2018-05-15T01:12:53.061Z,51.30
2018-05-15T01:15:20.600Z,51.30
2018-05-15T01:17:48.157Z,51.50
2018-05-15T01:20:15.691Z,51.70
2018-05-15T01:22:43.240Z,51.80
2018-05-15T01:25:10.769Z,52.30
2018-05-15T01:27:38.326Z,52.20
2018-05-15T01:30:05.862Z,52.40
2018-05-15T01:32:33.433Z,52.30
2018-05-15T01:35:00.955Z,52.20
2018-05-15T01:37:29.253Z,52.50
2018-05-15T01:39:56.814Z,52.40
2018-05-15T01:42:24.340Z,52.20
2018-05-15T01:44:51.903Z,52.40
2018-05-15T01:47:19.433Z,52.50
2018-05-15T01:49:46.995Z,52.30
2018-05-15T01:52:14.538Z,52.30
2018-05-15T01:54:42.106Z,52.40
2018-05-15T01:57:09.652Z,53.00
2018-05-15T01:59:37.221Z,52.90
2018-05-15T02:02:04.749Z,53.20
2018-05-15T02:04:33.077Z,53.90
2018-05-15T02:07:00.608Z,53.80
2018-05-15T02:09:28.174Z,54.20
2018-05-15T02:11:55.709Z,54.60
2018-05-15T02:14:24.029Z,54.50
2018-05-15T02:16:51.561Z,54.40
2018-05-15T02:19:19.113Z,54.60
2018-05-15T02:21:46.653Z,54.80
2018-05-15T02:24:14.974Z,55.50
2018-05-15T02:26:42.509Z,55.40
2018-05-15T02:29:10.078Z,55.80
2018-05-15T02:31:37.611Z,55.90
2018-05-15T02:34:05.938Z,56.10
2018-05-15T02:36:33.467Z,56.10
2018-05-15T02:39:01.024Z,56.40
2018-05-15T02:41:29.318Z,56.50
2018-05-15T02:43:56.877Z,56.40
2018-05-15T02:46:24.404Z,56.70
2018-05-15T02:48:51.961Z,56.20
2018-05-15T02:51:20.267Z,56.40
2018-05-15T02:53:47.821Z,56.30
2018-05-15T02:56:15.364Z,56.40
2018-05-15T02:58:43.688Z,56.70
2018-05-15T03:01:11.212Z,56.70
2018-05-15T03:03:39.541Z,56.90
2018-05-15T03:06:07.070Z,56.80
2018-05-15T03:08:34.625Z,57.20
2018-05-15T03:11:02.157Z,57.00
2018-05-15T03:13:29.692Z,57.20
2018-05-15T03:15:57.251Z,57.60
2018-05-15T03:18:24.785Z,57.10
2018-05-15T03:20:52.361Z,57.30
2018-05-15T03:23:19.891Z,57.10
2018-05-15T03:25:47.451Z,57.40
2018-05-15T03:28:14.985Z,57.40
2018-05-15T03:30:43.318Z,57.40
2018-05-15T03:33:10.850Z,57.30
2018-05-15T03:35:38.401Z,57.50
2018-05-15T03:38:05.930Z,57.50
2018-05-15T03:40:33.485Z,57.50
2018-05-15T03:43:01.013Z,57.50
2018-05-15T03:45:28.576Z,57.90
2018-05-15T03:47:56.103Z,58.00
2018-05-15T03:50:23.669Z,58.20
2018-05-15T03:52:51.193Z,58.20
2018-05-15T03:55:18.749Z,58.20
2018-05-15T03:57:46.269Z,58.40
2018-05-15T04:00:25.656Z,58.50
2018-05-15T04:03:05.772Z,59.00
2018-05-15T04:05:46.029Z,58.50
2018-05-15T04:08:14.344Z,58.50
2018-05-15T04:10:41.904Z,58.40
2018-05-15T04:13:09.438Z,58.40
2018-05-15T04:15:36.988Z,58.30
2018-05-15T04:18:04.509Z,58.40
2018-05-15T04:20:32.065Z,58.50
2018-05-15T04:23:00.356Z,58.50
2018-05-15T04:25:27.912Z,58.40
2018-05-15T04:27:55.450Z,58.50
2018-05-15T04:30:23.783Z,58.20
2018-05-15T04:32:51.308Z,58.00
2018-05-15T04:35:18.994Z,58.30
2018-05-15T04:37:46.407Z,58.60
2018-05-15T04:40:14.730Z,58.60
2018-05-15T04:42:42.254Z,58.60
2018-05-15T04:45:10.580Z,58.40
2018-05-15T04:47:38.137Z,58.30
2018-05-15T04:50:05.692Z,58.50
2018-05-15T04:52:33.212Z,58.20
2018-05-15T04:55:01.541Z,58.10
2018-05-15T04:57:29.083Z,58.10
2018-05-15T04:59:56.613Z,58.20
2018-05-15T05:02:24.937Z,58.30
2018-05-15T05:04:52.462Z,58.20
2018-05-15T05:07:21.006Z,58.20
2018-05-15T05:09:48.616Z,58.10
2018-05-15T05:12:16.169Z,57.60
2018-05-15T05:14:43.701Z,57.50
2018-05-15T05:17:11.261Z,57.50
2018-05-15T05:19:39.556Z,57.60
2018-05-15T05:22:07.882Z,57.40
2018-05-15T05:24:35.426Z,57.40
2018-05-15T05:27:03.051Z,57.40
2018-05-15T05:29:30.529Z,57.20
2018-05-15T05:31:58.089Z,57.40
2018-05-15T05:34:25.623Z,57.20
2018-05-15T05:36:54.046Z,57.50
2018-05-15T05:39:21.583Z,57.60
2018-05-15T05:41:49.133Z,56.10
2018-05-15T05:44:17.442Z,56.20
2018-05-15T05:46:45.772Z,56.10
2018-05-15T05:49:13.301Z,56.10
2018-05-15T05:51:40.856Z,55.20
2018-05-15T05:54:08.449Z,55.40
2018-05-15T05:56:36.014Z,55.40
2018-05-15T05:59:03.537Z,55.10
2018-05-15T06:01:31.089Z,55.00
2018-05-15T06:03:58.623Z,54.70
2018-05-15T06:06:26.188Z,55.00
2018-05-15T06:08:53.728Z,54.50
2018-05-15T06:11:22.041Z,54.00
2018-05-15T06:13:49.573Z,53.90
2018-05-15T06:16:17.884Z,53.70
2018-05-15T06:18:45.413Z,53.70
2018-05-15T06:21:12.964Z,53.30
2018-05-15T06:23:41.253Z,53.30
2018-05-15T06:26:09.572Z,53.60
2018-05-15T06:28:37.104Z,53.50
2018-05-15T06:31:04.657Z,53.50
2018-05-15T06:33:32.208Z,53.40
2018-05-15T06:36:00.496Z,53.30
2018-05-15T06:38:29.020Z,53.30
2018-05-15T06:40:57.393Z,52.70
2018-05-15T06:43:24.960Z,52.70
2018-05-15T06:45:52.485Z,52.40
2018-05-15T06:48:20.042Z,52.40
2018-05-15T06:50:47.569Z,52.50
2018-05-15T06:53:15.129Z,52.60
2018-05-15T06:55:42.667Z,52.40
2018-05-15T06:58:10.221Z,52.70
2018-05-15T07:00:37.753Z,51.90
2018-05-15T07:03:05.305Z,52.40
2018-05-15T07:05:32.837Z,51.80
2018-05-15T07:08:01.160Z,51.60
2018-05-15T07:10:28.682Z,51.50
2018-05-15T07:12:57.009Z,50.90
2018-05-15T07:15:24.536Z,50.80
2018-05-15T07:17:52.089Z,51.30
2018-05-15T07:20:19.621Z,51.60
2018-05-15T07:22:47.177Z,51.00
2018-05-15T07:25:14.709Z,51.40
2018-05-15T07:27:42.261Z,50.60
2018-05-15T07:30:09.785Z,50.20
2018-05-15T07:32:38.100Z,50.00
2018-05-15T07:35:05.642Z,49.90
2018-05-15T07:37:33.213Z,50.00
2018-05-15T07:40:00.745Z,50.20
2018-05-15T07:42:29.107Z,49.60
2018-05-15T07:44:56.618Z,49.70
2018-05-15T07:47:24.176Z,49.60
2018-05-15T07:49:51.705Z,49.50
2018-05-15T07:52:19.260Z,49.60
2018-05-15T07:54:47.557Z,48.80
2018-05-15T07:57:15.111Z,48.80
2018-05-15T07:59:42.645Z,48.40
2018-05-15T08:02:11.038Z,48.40
2018-05-15T08:04:38.518Z,48.30
2018-05-15T08:07:06.088Z,48.20
2018-05-15T08:09:33.620Z,48.10
2018-05-15T08:12:01.913Z,48.20
2018-05-15T08:14:29.468Z,48.00
2018-05-15T08:16:57.010Z,47.70
2018-05-15T08:19:25.329Z,47.60
2018-05-15T08:21:52.855Z,47.60
2018-05-15T08:24:21.176Z,47.30
2018-05-15T08:26:48.693Z,47.30
2018-05-15T08:29:17.003Z,47.50
2018-05-15T08:31:44.523Z,47.40
2018-05-15T08:34:12.837Z,47.40
2018-05-15T08:36:40.373Z,47.30
2018-05-15T08:39:07.932Z,47.00
2018-05-15T08:41:35.462Z,47.00
2018-05-15T08:44:03.793Z,46.50
2018-05-15T08:46:31.315Z,46.50
2018-05-15T08:48:59.636Z,46.80
2018-05-15T08:51:27.232Z,46.70
2018-05-15T08:53:54.728Z,46.70
2018-05-15T08:56:22.257Z,47.00
2018-05-15T08:58:49.808Z,46.20
2018-05-15T09:01:17.350Z,45.90
2018-05-15T09:03:44.906Z,44.90
2018-05-15T09:06:12.434Z,44.90
2018-05-15T09:08:39.980Z,45.40
2018-05-15T09:11:08.273Z,45.30
2018-05-15T09:13:35.823Z,45.20
2018-05-15T09:16:03.348Z,45.60
2018-05-15T09:18:30.896Z,44.40
2018-05-15T09:20:58.420Z,43.80
2018-05-15T09:23:25.973Z,43.20
2018-05-15T09:25:53.504Z,42.00
2018-05-15T09:28:21.825Z,41.30
2018-05-15T09:30:49.349Z,41.30
2018-05-15T09:33:17.677Z,40.70
2018-05-15T09:35:45.201Z,40.70
2018-05-15T09:38:12.748Z,40.50
2018-05-15T09:40:41.041Z,40.10
2018-05-15T09:43:08.565Z,40.00
2018-05-15T09:45:36.127Z,40.00
2018-05-15T09:48:03.649Z,40.20
2018-05-15T09:50:31.204Z,39.50
2018-05-15T09:52:58.729Z,39.00
2018-05-15T09:55:27.044Z,37.90
2018-05-15T09:57:54.578Z,37.80
2018-05-15T10:00:27.904Z,37.30
2018-05-15T10:02:55.429Z,37.20
2018-05-15T10:05:22.981Z,37.50
2018-05-15T10:07:51.324Z,36.50
2018-05-15T10:10:18.848Z,36.50
2018-05-15T10:12:46.379Z,36.30
2018-05-15T10:15:14.696Z,35.10
2018-05-15T10:17:42.218Z,35.10
2018-05-15T10:20:10.536Z,34.70
2018-05-15T10:22:38.069Z,34.60
2018-05-15T10:25:05.622Z,34.00
2018-05-15T10:27:33.153Z,33.80
2018-05-15T10:30:00.759Z,34.30
2018-05-15T10:32:28.243Z,33.50
2018-05-15T10:34:55.792Z,33.00
2018-05-15T10:37:23.371Z,33.50
2018-05-15T10:39:50.893Z,33.30
2018-05-15T10:42:18.413Z,32.70
2018-05-15T10:44:45.969Z,32.60
2018-05-15T10:47:13.489Z,32.30
2018-05-15T10:49:41.042Z,31.90
2018-05-15T10:52:08.573Z,31.80
2018-05-15T10:54:36.884Z,31.50
2018-05-15T10:57:04.400Z,31.60
2018-05-15T10:59:32.779Z,31.60
2018-05-15T11:02:00.264Z,31.10
2018-05-15T11:04:27.816Z,31.10
2018-05-15T11:06:56.105Z,30.40
2018-05-15T11:09:23.658Z,30.40
2018-05-15T11:11:51.213Z,30.00
2018-05-15T11:14:18.748Z,29.90
2018-05-15T11:16:46.301Z,29.80
2018-05-15T11:19:25.715Z,29.70
2018-05-15T11:22:05.068Z,29.80
2018-05-15T11:24:45.355Z,29.70
2018-05-15T11:27:13.646Z,30.10
2018-05-15T11:29:41.930Z,30.10
2018-05-15T11:32:09.492Z,30.10
2018-05-15T11:34:37.020Z,30.20
2018-05-15T11:37:05.345Z,30.80
2018-05-15T11:39:32.873Z,30.10
2018-05-15T11:42:01.193Z,30.40
2018-05-15T11:44:28.709Z,30.40
2018-05-15T11:46:57.041Z,29.10
2018-05-15T11:49:26.273Z,29.10
2018-05-15T11:51:54.184Z,29.10
2018-05-15T11:54:22.447Z,28.50
2018-05-15T11:56:50.031Z,28.60
2018-05-15T11:59:17.556Z,28.90
2018-05-15T12:01:45.876Z,30.00
2018-05-15T12:04:13.405Z,30.00
2018-05-15T12:06:40.963Z,30.50
2018-05-15T12:09:08.508Z,30.70
2018-05-15T12:11:36.832Z,31.40
2018-05-15T12:14:04.355Z,31.40
2018-05-15T12:16:32.677Z,31.70
2018-05-15T12:19:00.199Z,31.70
2018-05-15T12:21:27.748Z,31.40
2018-05-15T12:23:56.810Z,31.10
2018-05-15T12:26:24.364Z,31.00
2018-05-15T12:28:51.893Z,30.90
2018-05-15T12:31:19.442Z,30.90
2018-05-15T12:33:46.969Z,31.20
2018-05-15T12:36:14.528Z,31.20
2018-05-15T12:38:42.061Z,31.40
2018-05-15T12:41:09.696Z,31.40
2018-05-15T12:43:37.179Z,31.50
2018-05-15T12:46:04.733Z,32.00
2018-05-15T12:48:32.303Z,31.40
2018-05-15T12:50:59.844Z,31.80
2018-05-15T12:53:27.374Z,31.60
2018-05-15T12:55:55.697Z,31.50
2018-05-15T12:58:23.229Z,31.50
2018-05-15T13:00:50.754Z,31.60
2018-05-15T13:03:19.077Z,31.40
2018-05-15T13:05:46.607Z,31.30
2018-05-15T13:08:14.924Z,29.90
2018-05-15T13:10:42.448Z,29.90
2018-05-15T13:13:09.999Z,29.10
2018-05-15T13:15:38.292Z,28.70
2018-05-15T13:18:05.843Z,28.70
2018-05-15T13:20:34.133Z,28.80
2018-05-15T13:23:01.736Z,28.80
2018-05-15T13:25:29.240Z,29.10
2018-05-15T13:27:57.568Z,29.00
2018-05-15T13:30:25.091Z,29.00
2018-05-15T13:32:52.644Z,29.20
2018-05-15T13:35:20.946Z,28.40
2018-05-15T13:37:48.512Z,28.40
2018-05-15T13:40:16.037Z,28.20
2018-05-15T13:42:44.362Z,28.70
2018-05-15T13:45:11.891Z,28.70
2018-05-15T13:47:39.445Z,28.60
2018-05-15T13:50:06.973Z,28.80
2018-05-15T13:52:34.529Z,29.00
2018-05-15T13:55:02.051Z,29.10
2018-05-15T13:57:29.613Z,29.40
2018-05-15T13:59:57.142Z,29.50
2018-05-15T14:02:24.702Z,29.60
2018-05-15T14:04:52.293Z,29.70
2018-05-15T14:07:19.846Z,29.20
2018-05-15T14:09:47.370Z,29.10
2018-05-15T14:12:15.690Z,28.20
2018-05-15T14:14:43.223Z,28.10
2018-05-15T14:17:10.780Z,27.50
2018-05-15T14:19:38.314Z,27.20
2018-05-15T14:22:05.888Z,26.60
2018-05-15T14:24:34.237Z,26.10
2018-05-15T14:27:01.773Z,26.00
2018-05-15T14:29:29.300Z,25.80
2018-05-15T14:31:56.844Z,25.80
2018-05-15T14:34:25.132Z,25.40
2018-05-15T14:36:52.682Z,25.30
2018-05-15T14:39:21.008Z,25.40
2018-05-15T14:42:00.301Z,25.40
2018-05-15T14:44:28.617Z,25.10
2018-05-15T14:46:56.141Z,25.10
2018-05-15T14:49:23.703Z,25.10
2018-05-15T14:51:51.996Z,25.70
2018-05-15T14:54:19.549Z,25.70
2018-05-15T14:56:47.073Z,25.90
2018-05-15T14:59:14.622Z,26.20
2018-05-15T15:01:42.149Z,26.60
2018-05-15T15:04:09.705Z,26.60
2018-05-15T15:06:37.232Z,26.60
2018-05-15T15:09:06.341Z,26.70
2018-05-15T15:11:33.868Z,26.70
2018-05-15T15:14:01.421Z,26.50
2018-05-15T15:16:28.943Z,26.50
2018-05-15T15:18:56.498Z,26.10
2018-05-15T15:21:24.025Z,25.90
2018-05-15T15:23:52.346Z,25.70
2018-05-15T15:26:19.868Z,25.70
2018-05-15T15:28:47.420Z,25.70
2018-05-15T15:31:15.709Z,25.90
2018-05-15T15:33:44.032Z,26.00
2018-05-15T15:36:11.560Z,25.90
2018-05-15T15:38:39.113Z,25.70
2018-05-15T15:41:06.645Z,25.60
2018-05-15T15:43:34.241Z,26.10
2018-05-15T15:46:02.514Z,25.70
2018-05-15T15:48:30.065Z,25.70
2018-05-15T15:50:58.357Z,25.80
2018-05-15T15:53:25.917Z,25.70
2018-05-15T15:55:53.486Z,25.80
2018-05-15T15:58:21.036Z,25.80
2018-05-15T16:00:48.564Z,25.60
2018-05-15T16:03:16.120Z,25.60
2018-05-15T16:05:43.640Z,25.60
2018-05-15T16:08:11.192Z,25.80
2018-05-15T16:10:38.749Z,25.90
2018-05-15T16:13:06.272Z,26.00
2018-05-15T16:15:34.641Z,26.10
2018-05-15T16:18:02.140Z,26.00
2018-05-15T16:20:29.701Z,26.20
2018-05-15T16:22:57.228Z,26.40
2018-05-15T16:25:25.553Z,26.90
2018-05-15T16:27:53.077Z,26.30
2018-05-15T16:30:21.401Z,26.70
2018-05-15T16:32:48.932Z,26.70
2018-05-15T16:35:16.488Z,26.80
2018-05-15T16:37:44.098Z,26.90
2018-05-15T16:40:11.596Z,26.90
2018-05-15T16:42:39.894Z,27.10
2018-05-15T16:45:07.453Z,27.10
2018-05-15T16:47:34.986Z,27.20
2018-05-15T16:50:03.308Z,27.60
2018-05-15T16:52:30.845Z,27.60
2018-05-15T16:54:59.192Z,27.70
2018-05-15T16:57:26.724Z,27.60
2018-05-15T16:59:55.063Z,27.50
2018-05-15T17:02:22.592Z,28.00
2018-05-15T17:04:50.148Z,27.50
2018-05-15T17:07:17.677Z,27.70
2018-05-15T17:09:45.228Z,27.50
2018-05-15T17:12:12.748Z,27.40
2018-05-15T17:14:41.065Z,27.40
2018-05-15T17:17:08.585Z,27.40
2018-05-15T17:19:36.899Z,27.40
2018-05-15T17:22:04.421Z,27.40
2018-05-15T17:24:32.809Z,27.30
2018-05-15T17:27:01.105Z,27.30
2018-05-15T17:29:28.656Z,27.30
2018-05-15T17:31:56.183Z,27.10
2018-05-15T17:34:23.741Z,27.00
2018-05-15T17:36:51.267Z,26.80
2018-05-15T17:39:18.819Z,26.40
2018-05-15T17:41:46.349Z,26.40
2018-05-15T17:44:13.877Z,26.50
2018-05-15T17:46:41.429Z,26.50
2018-05-15T17:49:08.949Z,26.50
2018-05-15T17:51:36.497Z,26.60
2018-05-15T17:54:04.032Z,26.80
2018-05-15T17:56:32.353Z,27.50
2018-05-15T17:58:59.885Z,27.50
2018-05-15T18:01:27.442Z,27.80
2018-05-15T18:03:55.732Z,28.40
2018-05-15T18:06:23.280Z,28.40
2018-05-15T18:08:50.819Z,28.80
2018-05-15T18:11:18.383Z,29.00
2018-05-15T18:13:46.681Z,29.50
2018-05-15T18:16:14.236Z,29.40
2018-05-15T18:18:42.542Z,29.90
2018-05-15T18:21:10.150Z,29.90
2018-05-15T18:23:37.637Z,30.10
2018-05-15T18:26:05.956Z,30.60
2018-05-15T18:28:33.481Z,30.50
2018-05-15T18:31:01.097Z,30.80
2018-05-15T18:33:28.628Z,30.60
2018-05-15T18:35:56.185Z,30.60
2018-05-15T18:38:23.720Z,30.80
2018-05-15T18:40:51.272Z,30.90
2018-05-15T18:43:19.564Z,31.10
2018-05-15T18:45:47.117Z,31.10
2018-05-15T18:48:15.412Z,31.40
2018-05-15T18:50:42.960Z,31.40
2018-05-15T18:53:10.479Z,31.60
2018-05-15T18:55:38.032Z,31.60
2018-05-15T18:58:05.649Z,32.20
2018-05-15T19:00:33.145Z,33.30
2018-05-15T19:03:00.672Z,33.90
2018-05-15T19:05:28.224Z,34.40
2018-05-15T19:07:56.800Z,34.80
2018-05-15T19:10:25.216Z,35.80
2018-05-15T19:12:52.742Z,35.70
2018-05-15T19:15:20.300Z,36.30
2018-05-15T19:17:47.833Z,36.80
2018-05-15T19:20:15.367Z,37.20
2018-05-15T19:22:42.922Z,37.50
2018-05-15T19:25:10.447Z,37.90
2018-05-15T19:27:38.076Z,38.20
2018-05-15T19:30:05.605Z,38.50
2018-05-15T19:32:38.978Z,38.90
2018-05-15T19:35:07.357Z,39.30
2018-05-15T19:37:34.928Z,39.70
2018-05-15T19:40:08.049Z,40.00
2018-05-15T19:42:35.615Z,40.30
2018-05-15T19:45:03.860Z,40.60
2018-05-15T19:47:31.514Z,40.80
2018-05-15T19:49:59.033Z,41.20
2018-05-15T19:52:27.352Z,41.70
2018-05-15T19:54:54.878Z,41.70
2018-05-15T19:57:23.192Z,42.00
2018-05-15T19:59:50.722Z,42.00
2018-05-15T20:02:18.285Z,42.40
2018-05-15T20:04:46.573Z,42.70
2018-05-15T20:07:14.129Z,42.60
2018-05-15T20:09:41.654Z,42.80
2018-05-15T20:12:09.216Z,43.00
2018-05-15T20:14:37.529Z,43.40
2018-05-15T20:17:05.081Z,43.20
2018-05-15T20:19:33.369Z,44.00
2018-05-15T20:22:00.931Z,43.90
2018-05-15T20:24:28.501Z,44.00
2018-05-15T20:26:56.058Z,44.30
2018-05-15T20:29:23.581Z,44.50
2018-05-15T20:31:51.905Z,45.10
2018-05-15T20:34:19.432Z,45.00
2018-05-15T20:36:47.754Z,45.60
2018-05-15T20:39:15.288Z,45.50
2018-05-15T20:41:42.848Z,46.20
2018-05-15T20:44:10.383Z,46.80
2018-05-15T20:46:38.702Z,47.80
2018-05-15T20:49:06.240Z,47.70
2018-05-15T20:51:33.795Z,48.50
2018-05-15T20:54:02.097Z,48.90
2018-05-15T20:56:29.653Z,48.90
2018-05-15T20:58:57.179Z,49.30
2018-05-15T21:01:25.509Z,49.70
2018-05-15T21:03:53.040Z,49.60
2018-05-15T21:06:20.623Z,49.80
2018-05-15T21:08:48.152Z,50.00
2018-05-15T21:11:16.440Z,50.30
2018-05-15T21:13:43.993Z,50.20
2018-05-15T21:16:11.525Z,50.50
2018-05-15T21:18:39.090Z,50.70
2018-05-15T21:21:07.380Z,50.70
2018-05-15T21:23:35.701Z,51.00
2018-05-15T21:26:03.234Z,50.90
2018-05-15T21:28:30.796Z,51.20
2018-05-15T21:30:58.327Z,51.30
2018-05-15T21:33:26.649Z,51.70
2018-05-15T21:35:54.176Z,51.50
2018-05-15T21:38:22.508Z,51.90
2018-05-15T21:40:50.037Z,51.90
2018-05-15T21:43:17.604Z,52.00
2018-05-15T21:45:45.128Z,52.20
2018-05-15T21:48:13.441Z,52.60
2018-05-15T21:50:40.960Z,52.50
2018-05-15T21:53:09.282Z,53.00
2018-05-15T21:55:36.813Z,52.70
2018-05-15T21:58:05.140Z,53.90
2018-05-15T22:00:32.674Z,53.80
2018-05-15T22:03:00.230Z,54.30
2018-05-15T22:05:27.765Z,54.40
2018-05-15T22:07:56.108Z,55.30
2018-05-15T22:10:23.624Z,55.20
2018-05-15T22:13:03.061Z,55.50
2018-05-15T22:15:42.548Z,56.10
2018-05-15T22:18:21.862Z,56.60
2018-05-15T22:21:01.134Z,56.90
2018-05-15T22:23:28.200Z,57.20
2018-05-15T22:25:56.496Z,58.00
2018-05-15T22:28:24.053Z,57.90
2018-05-15T22:30:51.588Z,58.50
2018-05-15T22:33:19.152Z,58.50
2018-05-15T22:35:47.440Z,59.60
2018-05-15T22:38:15.761Z,59.40
2018-05-15T22:40:43.297Z,59.30
2018-05-15T22:43:10.852Z,60.10
2018-05-15T22:45:38.383Z,60.40
2018-05-15T22:48:06.750Z,61.50
2018-05-15T22:50:34.372Z,61.30
2018-05-15T22:53:01.938Z,61.90
2018-05-15T22:55:29.463Z,62.10
2018-05-15T22:57:57.790Z,63.10
2018-05-15T23:00:25.333Z,63.00
2018-05-15T23:02:52.902Z,63.60
2018-05-15T23:05:20.484Z,63.80
2018-05-15T23:07:48.037Z,63.90
2018-05-15T23:10:15.569Z,64.70
2018-05-15T23:12:43.124Z,64.50
2018-05-15T23:15:10.657Z,64.40
2018-05-15T23:17:39.007Z,64.70
2018-05-15T23:20:06.533Z,64.60
2018-05-15T23:22:41.812Z,64.70
2018-05-15T23:25:09.332Z,64.80
2018-05-15T23:27:36.851Z,65.10
2018-05-15T23:30:05.226Z,65.40
2018-05-15T23:32:32.774Z,65.20
2018-05-15T23:35:00.324Z,65.20
2018-05-15T23:37:27.849Z,65.70
2018-05-15T23:39:55.394Z,65.80
2018-05-15T23:42:22.920Z,65.80
2018-05-15T23:44:50.464Z,65.90
2018-05-15T23:47:17.985Z,66.10
2018-05-15T23:49:45.546Z,66.00
2018-05-15T23:52:13.072Z,66.10
2018-05-15T23:54:41.388Z,66.50
2018-05-15T23:57:08.917Z,66.30
2018-05-15T23:59:37.289Z,66.50
